createdAt,value
2018-07-31T00:00:14.620Z,24.38
2018-07-31T00:02:42.951Z,24.37
2018-07-31T00:05:11.473Z,24.37
2018-07-31T00:07:39.823Z,24.36
2018-07-31T00:10:08.160Z,24.35
2018-07-31T00:12:36.524Z,24.34
2018-07-31T00:15:07.452Z,24.33
2018-07-31T00:17:35.864Z,24.30
2018-07-31T00:20:04.200Z,24.27
2018-07-31T00:22:32.732Z,24.21
2018-07-31T00:25:01.070Z,24.20
2018-07-31T00:27:29.467Z,24.20
2018-07-31T00:29:57.809Z,24.14
2018-07-31T00:32:26.215Z,24.08
2018-07-31T00:34:55.076Z,24.01
2018-07-31T00:37:23.640Z,23.97
2018-07-31T00:39:52.025Z,23.93
2018-07-31T00:42:20.376Z,23.87
2018-07-31T00:44:48.830Z,23.85
2018-07-31T00:47:17.155Z,23.85
2018-07-31T00:49:45.494Z,23.84
2018-07-31T00:52:14.042Z,23.84
2018-07-31T00:54:42.414Z,23.82
2018-07-31T00:57:10.716Z,23.82
2018-07-31T00:59:39.064Z,23.80
2018-07-31T01:02:07.462Z,23.77
2018-07-31T01:04:35.796Z,23.75
2018-07-31T01:07:04.144Z,23.75
2018-07-31T01:09:32.471Z,23.70
2018-07-31T01:12:00.839Z,23.65
2018-07-31T01:14:29.439Z,23.61
2018-07-31T01:16:57.832Z,23.57
2018-07-31T01:19:26.195Z,23.56
2018-07-31T01:21:54.808Z,23.54
2018-07-31T01:24:23.281Z,23.50
2018-07-31T01:26:51.643Z,23.47
2018-07-31T01:29:19.969Z,23.46
2018-07-31T01:31:48.629Z,23.46
2018-07-31T01:34:16.944Z,23.46
2018-07-31T01:36:45.402Z,23.41
2018-07-31T01:39:13.794Z,23.40
2018-07-31T01:41:42.389Z,23.36
2018-07-31T01:44:10.752Z,23.33
2018-07-31T01:46:39.113Z,23.29
2018-07-31T01:49:07.499Z,23.25
2018-07-31T01:51:35.884Z,23.21
2018-07-31T01:54:11.104Z,23.17
2018-07-31T01:56:39.476Z,23.13
2018-07-31T01:59:07.851Z,23.13
2018-07-31T02:01:36.249Z,23.12
2018-07-31T02:04:04.579Z,23.06
2018-07-31T02:06:32.932Z,23.04
2018-07-31T02:09:01.381Z,23.01
2018-07-31T02:11:29.704Z,22.98
2018-07-31T02:13:58.030Z,22.92
2018-07-31T02:16:26.333Z,22.90
2018-07-31T02:18:54.652Z,22.89
2018-07-31T02:21:22.994Z,22.86
2018-07-31T02:23:51.312Z,22.87
2018-07-31T02:26:19.636Z,22.87
2018-07-31T02:28:48.179Z,22.87
2018-07-31T02:31:16.517Z,22.90
2018-07-31T02:33:44.949Z,22.94
2018-07-31T02:36:13.392Z,22.95
2018-07-31T02:38:41.764Z,22.93
2018-07-31T02:41:10.071Z,22.91
2018-07-31T02:43:38.433Z,22.86
2018-07-31T02:46:06.797Z,22.83
2018-07-31T02:48:35.137Z,22.80
2018-07-31T02:51:03.495Z,22.78
2018-07-31T02:53:31.863Z,22.76
2018-07-31T02:56:00.233Z,22.72
2018-07-31T02:58:28.621Z,22.70
2018-07-31T03:00:56.988Z,22.67
2018-07-31T03:03:25.332Z,22.65
2018-07-31T03:05:54.125Z,22.65
2018-07-31T03:08:22.487Z,22.63
2018-07-31T03:10:50.947Z,22.63
2018-07-31T03:13:19.308Z,22.63
2018-07-31T03:15:47.635Z,22.61
2018-07-31T03:18:16.000Z,22.59
2018-07-31T03:20:44.366Z,22.57
2018-07-31T03:23:12.741Z,22.55
2018-07-31T03:25:41.088Z,22.54
2018-07-31T03:28:09.493Z,22.54
2018-07-31T03:30:37.807Z,22.52
2018-07-31T03:33:06.273Z,22.51
2018-07-31T03:35:34.588Z,22.46
2018-07-31T03:38:03.123Z,22.46
2018-07-31T03:40:31.565Z,22.42
2018-07-31T03:42:59.935Z,22.37
2018-07-31T03:45:29.223Z,22.33
2018-07-31T03:47:57.547Z,22.32
2018-07-31T03:50:25.908Z,22.31
2018-07-31T03:52:54.245Z,22.26
2018-07-31T03:55:22.623Z,22.22
2018-07-31T03:57:50.944Z,22.20
2018-07-31T04:00:19.307Z,22.19
2018-07-31T04:02:47.667Z,22.20
2018-07-31T04:05:16.024Z,22.22
2018-07-31T04:07:44.345Z,22.24
2018-07-31T04:10:12.712Z,22.26
2018-07-31T04:12:41.054Z,22.30
2018-07-31T04:15:09.403Z,22.37
2018-07-31T04:17:37.771Z,22.42
2018-07-31T04:20:06.307Z,22.44
2018-07-31T04:22:34.790Z,22.45
2018-07-31T04:25:03.119Z,22.46
2018-07-31T04:27:31.469Z,22.50
2018-07-31T04:29:59.967Z,22.57
2018-07-31T04:32:28.293Z,22.80
2018-07-31T04:34:56.639Z,23.37
2018-07-31T04:37:24.982Z,24.00
2018-07-31T04:39:53.353Z,24.58
2018-07-31T04:42:21.749Z,25.02
2018-07-31T04:44:50.081Z,25.20
2018-07-31T04:47:18.399Z,25.08
2018-07-31T04:49:46.739Z,24.74
2018-07-31T04:52:15.055Z,24.42
2018-07-31T04:54:43.379Z,24.41
2018-07-31T04:57:11.689Z,24.47
2018-07-31T04:59:40.040Z,24.39
2018-07-31T05:02:08.394Z,24.36
2018-07-31T05:04:36.730Z,25.00
2018-07-31T05:07:05.299Z,25.89
2018-07-31T05:09:33.750Z,26.77
2018-07-31T05:12:02.108Z,27.43
2018-07-31T05:14:30.439Z,27.99
2018-07-31T05:16:58.812Z,28.58
2018-07-31T05:19:27.135Z,29.15
2018-07-31T05:21:55.507Z,29.63
2018-07-31T05:24:23.842Z,30.01
2018-07-31T05:26:52.136Z,30.51
2018-07-31T05:29:20.535Z,30.63
2018-07-31T05:31:48.876Z,30.77
2018-07-31T05:34:17.255Z,30.97
2018-07-31T05:36:45.594Z,30.88
2018-07-31T05:39:13.977Z,30.61
2018-07-31T05:41:42.346Z,30.84
2018-07-31T05:44:10.846Z,31.12
2018-07-31T05:46:39.243Z,31.16
2018-07-31T05:49:07.637Z,30.95
2018-07-31T05:51:36.161Z,30.78
2018-07-31T05:54:04.568Z,30.68
2018-07-31T05:56:32.905Z,30.36
2018-07-31T05:59:01.231Z,29.95
2018-07-31T06:01:29.604Z,29.74
2018-07-31T06:03:57.908Z,29.58
2018-07-31T06:06:26.364Z,29.41
2018-07-31T06:08:54.698Z,29.28
2018-07-31T06:11:23.072Z,29.06
2018-07-31T06:13:51.439Z,28.92
2018-07-31T06:16:19.801Z,28.66
2018-07-31T06:18:48.152Z,28.42
2018-07-31T06:21:16.471Z,28.27
2018-07-31T06:23:44.839Z,28.19
2018-07-31T06:26:13.129Z,28.10
2018-07-31T06:28:41.495Z,28.00
2018-07-31T06:31:09.818Z,27.94
2018-07-31T06:33:38.177Z,27.90
2018-07-31T06:36:06.523Z,27.87
2018-07-31T06:38:34.907Z,27.85
2018-07-31T06:41:03.246Z,27.76
2018-07-31T06:43:31.732Z,27.70
2018-07-31T06:46:00.057Z,27.74
2018-07-31T06:48:28.384Z,27.78
2018-07-31T06:50:56.763Z,27.75
2018-07-31T06:53:25.336Z,27.78
2018-07-31T06:55:53.684Z,27.83
2018-07-31T06:58:22.026Z,28.00
2018-07-31T07:00:50.460Z,28.23
2018-07-31T07:03:18.789Z,28.45
2018-07-31T07:05:47.136Z,28.44
2018-07-31T07:08:15.489Z,28.49
2018-07-31T07:10:43.844Z,28.53
2018-07-31T07:13:12.237Z,28.43
2018-07-31T07:15:40.604Z,28.40
2018-07-31T07:18:08.989Z,28.38
2018-07-31T07:20:37.277Z,28.31
2018-07-31T07:23:05.680Z,28.26
2018-07-31T07:25:33.986Z,28.19
2018-07-31T07:28:02.485Z,28.13
2018-07-31T07:30:30.756Z,28.10
2018-07-31T07:32:59.061Z,28.09
2018-07-31T07:35:27.390Z,28.16
2018-07-31T07:37:55.714Z,28.22
2018-07-31T07:40:24.076Z,28.30
2018-07-31T07:42:52.426Z,28.40
2018-07-31T07:45:20.783Z,28.53
2018-07-31T07:47:49.192Z,28.59
2018-07-31T07:50:17.683Z,28.54
2018-07-31T07:52:46.025Z,28.59
2018-07-31T07:55:14.487Z,28.62
2018-07-31T07:57:42.851Z,28.71
2018-07-31T08:00:11.783Z,28.90
2018-07-31T08:02:40.113Z,29.07
2018-07-31T08:05:08.956Z,29.26
2018-07-31T08:07:37.344Z,29.42
2018-07-31T08:10:06.117Z,29.53
2018-07-31T08:12:34.488Z,29.63
2018-07-31T08:15:02.893Z,29.70
2018-07-31T08:17:31.223Z,29.71
2018-07-31T08:19:59.556Z,29.69
2018-07-31T08:22:27.931Z,29.67
2018-07-31T08:24:56.311Z,29.66
2018-07-31T08:27:24.657Z,29.72
2018-07-31T08:29:53.059Z,29.78
2018-07-31T08:32:21.408Z,29.78
2018-07-31T08:34:49.788Z,29.77
2018-07-31T08:37:18.136Z,29.74
2018-07-31T08:39:46.480Z,29.76
2018-07-31T08:42:14.889Z,29.67
2018-07-31T08:44:43.274Z,29.57
2018-07-31T08:47:11.677Z,29.48
2018-07-31T08:49:40.024Z,29.26
2018-07-31T08:52:08.393Z,29.22
2018-07-31T08:54:36.724Z,29.28
2018-07-31T08:57:05.109Z,29.36
2018-07-31T08:59:33.556Z,29.52
2018-07-31T09:02:01.975Z,29.63
2018-07-31T09:04:30.300Z,29.78
2018-07-31T09:06:58.633Z,29.96
2018-07-31T09:09:26.958Z,30.09
2018-07-31T09:11:55.294Z,30.13
2018-07-31T09:14:23.629Z,30.26
2018-07-31T09:16:52.033Z,30.39
2018-07-31T09:19:20.347Z,30.45
2018-07-31T09:21:48.689Z,30.38
2018-07-31T09:24:17.067Z,30.29
2018-07-31T09:26:45.373Z,30.29
2018-07-31T09:29:13.751Z,30.48
2018-07-31T09:31:42.942Z,30.73
2018-07-31T09:34:11.295Z,30.95
2018-07-31T09:36:39.642Z,31.12
2018-07-31T09:39:09.562Z,31.18
2018-07-31T09:41:37.965Z,31.19
2018-07-31T09:44:06.725Z,31.13
2018-07-31T09:46:35.093Z,31.08
2018-07-31T09:49:03.461Z,31.04
2018-07-31T09:51:31.852Z,31.00
2018-07-31T09:54:00.235Z,31.08
2018-07-31T09:56:28.570Z,31.13
2018-07-31T09:58:57.271Z,31.19
2018-07-31T10:01:25.632Z,31.11
2018-07-31T10:03:53.937Z,30.96
2018-07-31T10:06:22.299Z,30.92
2018-07-31T10:08:50.632Z,30.84
2018-07-31T10:11:19.012Z,30.83
2018-07-31T10:13:47.351Z,30.92
2018-07-31T10:16:15.730Z,31.12
2018-07-31T10:18:44.058Z,31.22
2018-07-31T10:21:12.376Z,31.31
2018-07-31T10:23:40.734Z,31.29
2018-07-31T10:26:09.099Z,31.23
2018-07-31T10:28:37.459Z,31.14
2018-07-31T10:31:05.777Z,31.19
2018-07-31T10:33:34.122Z,31.36
2018-07-31T10:36:02.475Z,31.47
2018-07-31T10:38:30.799Z,31.55
2018-07-31T10:40:59.150Z,31.57
2018-07-31T10:43:27.474Z,31.56
2018-07-31T10:45:55.857Z,31.66
2018-07-31T10:48:24.272Z,31.77
2018-07-31T10:50:52.621Z,31.80
2018-07-31T10:53:20.981Z,31.78
2018-07-31T10:55:49.436Z,31.76
2018-07-31T10:58:17.775Z,31.65
2018-07-31T11:00:46.134Z,31.57
2018-07-31T11:03:14.547Z,31.51
2018-07-31T11:05:42.819Z,31.53
2018-07-31T11:08:11.159Z,31.58
2018-07-31T11:10:39.533Z,31.54
2018-07-31T11:13:07.939Z,31.50
2018-07-31T11:15:36.252Z,31.63
2018-07-31T11:18:04.592Z,31.70
2018-07-31T11:20:32.979Z,31.81
2018-07-31T11:23:01.328Z,32.00
2018-07-31T11:25:29.705Z,32.17
2018-07-31T11:27:58.048Z,32.32
2018-07-31T11:30:26.401Z,32.37
2018-07-31T11:32:54.821Z,32.28
2018-07-31T11:35:23.174Z,32.13
2018-07-31T11:37:51.549Z,31.98
2018-07-31T11:40:19.993Z,31.83
2018-07-31T11:42:48.369Z,31.72
2018-07-31T11:45:16.706Z,31.69
2018-07-31T11:47:45.060Z,31.69
2018-07-31T11:50:13.517Z,31.68
2018-07-31T11:52:41.829Z,31.68
2018-07-31T11:55:10.195Z,31.66
2018-07-31T11:57:38.540Z,31.65
2018-07-31T12:00:09.546Z,31.65
2018-07-31T12:02:37.857Z,31.68
2018-07-31T12:05:06.574Z,31.65
2018-07-31T12:07:34.999Z,31.62
2018-07-31T12:10:03.449Z,31.64
2018-07-31T12:12:31.783Z,31.66
2018-07-31T12:15:00.260Z,31.69
2018-07-31T12:17:28.689Z,31.65
2018-07-31T12:19:57.045Z,31.61
2018-07-31T12:22:25.352Z,31.60
2018-07-31T12:24:53.742Z,31.69
2018-07-31T12:27:22.089Z,31.82
2018-07-31T12:29:50.417Z,31.97
2018-07-31T12:32:18.811Z,32.02
2018-07-31T12:34:47.153Z,32.01
2018-07-31T12:37:15.465Z,31.91
2018-07-31T12:39:43.823Z,31.87
2018-07-31T12:42:12.161Z,31.97
2018-07-31T12:44:40.502Z,32.04
2018-07-31T12:47:08.925Z,32.08
2018-07-31T12:49:37.343Z,32.18
2018-07-31T12:52:05.689Z,32.36
2018-07-31T12:54:34.000Z,32.41
2018-07-31T12:57:02.343Z,32.28
2018-07-31T12:59:30.693Z,32.03
2018-07-31T13:01:59.020Z,31.93
2018-07-31T13:04:27.318Z,31.88
2018-07-31T13:06:55.666Z,31.94
2018-07-31T13:09:24.017Z,31.98
2018-07-31T13:11:52.482Z,32.04
2018-07-31T13:14:20.824Z,32.10
2018-07-31T13:16:49.197Z,32.19
2018-07-31T13:19:17.631Z,32.32
2018-07-31T13:21:46.284Z,32.46
2018-07-31T13:24:14.635Z,32.45
2018-07-31T13:26:42.971Z,32.39
2018-07-31T13:29:11.335Z,32.41
2018-07-31T13:31:39.635Z,32.40
2018-07-31T13:34:07.990Z,32.44
2018-07-31T13:36:36.411Z,32.44
2018-07-31T13:39:07.887Z,32.38
2018-07-31T13:41:36.328Z,32.29
2018-07-31T13:44:05.385Z,32.28
2018-07-31T13:46:33.672Z,32.20
2018-07-31T13:49:02.086Z,32.18
2018-07-31T13:51:30.633Z,32.22
2018-07-31T13:53:58.960Z,32.33
2018-07-31T13:56:27.639Z,32.37
2018-07-31T13:58:56.099Z,32.36
2018-07-31T14:01:24.409Z,32.38
2018-07-31T14:03:52.917Z,32.31
2018-07-31T14:06:21.288Z,32.18
2018-07-31T14:08:49.626Z,31.91
2018-07-31T14:11:18.043Z,31.73
2018-07-31T14:13:46.443Z,31.61
2018-07-31T14:16:14.712Z,31.50
2018-07-31T14:18:43.020Z,31.50
2018-07-31T14:21:11.528Z,31.62
2018-07-31T14:23:39.960Z,31.67
2018-07-31T14:26:08.286Z,31.65
2018-07-31T14:28:36.669Z,31.63
2018-07-31T14:31:05.022Z,31.55
2018-07-31T14:33:33.332Z,31.43
2018-07-31T14:36:01.662Z,31.43
2018-07-31T14:38:30.005Z,31.47
2018-07-31T14:40:58.432Z,31.49
2018-07-31T14:43:26.743Z,31.50
2018-07-31T14:45:55.078Z,31.55
2018-07-31T14:48:23.409Z,31.51
2018-07-31T14:50:51.732Z,31.50
2018-07-31T14:53:20.187Z,31.48
2018-07-31T14:55:48.540Z,31.48
2018-07-31T14:58:16.895Z,31.47
2018-07-31T15:00:45.247Z,31.46
2018-07-31T15:03:13.727Z,31.44
2018-07-31T15:05:42.077Z,31.42
2018-07-31T15:08:10.396Z,31.37
2018-07-31T15:10:38.772Z,31.33
2018-07-31T15:13:07.054Z,31.40
2018-07-31T15:15:35.396Z,31.50
2018-07-31T15:18:03.719Z,31.58
2018-07-31T15:20:32.091Z,31.72
2018-07-31T15:23:00.452Z,31.85
2018-07-31T15:25:28.807Z,31.98
2018-07-31T15:27:57.195Z,32.02
2018-07-31T15:30:25.586Z,32.00
2018-07-31T15:32:53.934Z,31.83
2018-07-31T15:35:22.283Z,31.63
2018-07-31T15:37:50.672Z,31.46
2018-07-31T15:40:19.088Z,31.39
2018-07-31T15:42:47.456Z,31.20
2018-07-31T15:45:15.747Z,31.01
2018-07-31T15:47:44.128Z,30.84
2018-07-31T15:50:12.435Z,30.68
2018-07-31T15:52:40.782Z,30.57
2018-07-31T15:55:09.383Z,30.46
2018-07-31T15:57:37.728Z,30.37
2018-07-31T16:00:08.357Z,30.34
2018-07-31T16:02:36.888Z,30.53
2018-07-31T16:05:05.695Z,30.77
2018-07-31T16:07:34.056Z,30.95
2018-07-31T16:10:02.410Z,31.04
2018-07-31T16:12:30.734Z,31.12
2018-07-31T16:14:59.068Z,31.19
2018-07-31T16:17:27.422Z,31.21
2018-07-31T16:19:56.063Z,31.19
2018-07-31T16:22:24.981Z,31.14
2018-07-31T16:24:53.499Z,31.09
2018-07-31T16:27:21.816Z,31.07
2018-07-31T16:29:50.165Z,31.05
2018-07-31T16:32:18.563Z,31.02
2018-07-31T16:34:46.888Z,30.99
2018-07-31T16:37:15.271Z,30.92
2018-07-31T16:39:43.668Z,30.92
2018-07-31T16:42:12.020Z,30.92
2018-07-31T16:44:40.410Z,30.92
2018-07-31T16:47:08.987Z,30.81
2018-07-31T16:49:37.347Z,30.72
2018-07-31T16:52:05.706Z,30.68
2018-07-31T16:54:34.182Z,30.53
2018-07-31T16:57:02.828Z,30.41
2018-07-31T16:59:31.113Z,30.33
2018-07-31T17:01:59.453Z,30.30
2018-07-31T17:04:27.847Z,30.27
2018-07-31T17:06:56.469Z,30.26
2018-07-31T17:09:24.831Z,30.23
2018-07-31T17:11:53.213Z,30.20
2018-07-31T17:14:21.636Z,30.20
2018-07-31T17:16:50.138Z,30.16
2018-07-31T17:19:18.511Z,30.12
2018-07-31T17:21:46.851Z,29.97
2018-07-31T17:24:15.644Z,29.91
2018-07-31T17:26:44.082Z,29.88
2018-07-31T17:29:12.439Z,29.84
2018-07-31T17:31:40.753Z,29.79
2018-07-31T17:34:09.066Z,29.74
2018-07-31T17:36:37.399Z,29.68
2018-07-31T17:39:08.140Z,29.65
2018-07-31T17:41:36.622Z,29.60
2018-07-31T17:44:05.403Z,29.52
2018-07-31T17:46:33.905Z,29.50
2018-07-31T17:49:02.344Z,29.47
2018-07-31T17:51:30.720Z,29.39
2018-07-31T17:53:59.071Z,29.28
2018-07-31T17:56:27.475Z,29.21
2018-07-31T17:58:55.828Z,29.13
2018-07-31T18:01:24.239Z,29.02
2018-07-31T18:03:52.693Z,28.99
2018-07-31T18:06:21.074Z,28.92
2018-07-31T18:08:49.416Z,28.87
2018-07-31T18:11:17.960Z,28.85
2018-07-31T18:13:46.324Z,28.79
2018-07-31T18:16:14.711Z,28.73
2018-07-31T18:18:43.095Z,28.64
2018-07-31T18:21:11.580Z,28.55
2018-07-31T18:23:40.315Z,28.48
2018-07-31T18:26:08.684Z,28.45
2018-07-31T18:28:37.217Z,28.44
2018-07-31T18:31:05.822Z,28.37
2018-07-31T18:33:34.157Z,28.28
2018-07-31T18:36:02.985Z,28.17
2018-07-31T18:38:31.726Z,28.08
2018-07-31T18:41:00.139Z,28.03
2018-07-31T18:43:28.598Z,27.97
2018-07-31T18:45:56.966Z,27.90
2018-07-31T18:48:25.578Z,27.85
2018-07-31T18:50:54.200Z,27.82
2018-07-31T18:53:22.759Z,27.76
2018-07-31T18:55:51.365Z,27.75
2018-07-31T18:58:19.718Z,27.75
2018-07-31T19:00:48.171Z,27.71
2018-07-31T19:03:16.489Z,27.63
2018-07-31T19:05:44.817Z,27.55
2018-07-31T19:08:13.175Z,27.48
2018-07-31T19:10:41.546Z,27.40
2018-07-31T19:13:09.976Z,27.34
2018-07-31T19:15:38.467Z,27.29
2018-07-31T19:18:06.898Z,27.27
2018-07-31T19:20:35.256Z,27.21
2018-07-31T19:23:03.804Z,27.16
2018-07-31T19:25:32.214Z,27.11
2018-07-31T19:28:00.636Z,27.09
2018-07-31T19:30:28.902Z,27.07
2018-07-31T19:32:57.262Z,26.99
2018-07-31T19:35:25.834Z,26.95
2018-07-31T19:37:54.231Z,26.89
2018-07-31T19:40:23.037Z,26.82
2018-07-31T19:42:51.463Z,26.73
2018-07-31T19:45:19.869Z,26.66
2018-07-31T19:47:48.552Z,26.63
2018-07-31T19:50:16.981Z,26.60
2018-07-31T19:52:45.615Z,26.57
2018-07-31T19:55:13.945Z,26.53
2018-07-31T19:57:42.339Z,26.48
2018-07-31T20:00:10.694Z,26.45
2018-07-31T20:02:39.059Z,26.42
2018-07-31T20:05:07.679Z,26.37
2018-07-31T20:07:36.072Z,26.34
2018-07-31T20:10:04.873Z,26.33
2018-07-31T20:12:33.208Z,26.32
2018-07-31T20:15:01.663Z,26.28
2018-07-31T20:17:30.057Z,26.26
2018-07-31T20:19:58.433Z,26.24
2018-07-31T20:22:26.758Z,26.22
2018-07-31T20:24:55.135Z,26.20
2018-07-31T20:27:23.513Z,26.16
2018-07-31T20:29:52.064Z,26.13
2018-07-31T20:32:20.558Z,26.09
2018-07-31T20:34:48.930Z,26.01
2018-07-31T20:37:17.244Z,25.92
2018-07-31T20:39:45.631Z,25.87
2018-07-31T20:42:14.006Z,25.85
2018-07-31T20:44:42.461Z,25.81
2018-07-31T20:47:10.921Z,25.78
2018-07-31T20:49:39.267Z,25.76
2018-07-31T20:52:07.633Z,25.73
2018-07-31T20:54:35.984Z,25.72
2018-07-31T20:57:04.383Z,25.71
2018-07-31T20:59:32.703Z,25.64
2018-07-31T21:02:01.043Z,25.60
2018-07-31T21:04:29.390Z,25.55
2018-07-31T21:06:57.762Z,25.48
2018-07-31T21:09:26.113Z,25.48
2018-07-31T21:11:54.655Z,25.48
2018-07-31T21:14:23.072Z,25.44
2018-07-31T21:16:51.396Z,25.41
2018-07-31T21:19:19.768Z,25.39
2018-07-31T21:21:48.100Z,25.34
2018-07-31T21:24:16.447Z,25.27
2018-07-31T21:26:44.754Z,25.23
2018-07-31T21:29:13.163Z,25.19
2018-07-31T21:31:41.508Z,25.16
2018-07-31T21:34:09.829Z,25.12
2018-07-31T21:36:38.172Z,25.08
2018-07-31T21:39:09.664Z,25.08
2018-07-31T21:41:38.164Z,25.01
2018-07-31T21:44:06.540Z,24.97
2018-07-31T21:46:34.918Z,24.95
2018-07-31T21:49:03.259Z,24.90
2018-07-31T21:51:31.634Z,24.86
2018-07-31T21:53:59.957Z,24.83
2018-07-31T21:56:28.288Z,24.74
2018-07-31T21:58:56.632Z,24.68
2018-07-31T22:01:24.989Z,24.60
2018-07-31T22:03:53.328Z,24.53
2018-07-31T22:06:21.642Z,24.48
2018-07-31T22:08:50.094Z,24.41
2018-07-31T22:11:18.494Z,24.37
2018-07-31T22:13:46.798Z,24.34
2018-07-31T22:16:15.224Z,24.35
2018-07-31T22:18:43.513Z,24.30
2018-07-31T22:21:11.884Z,24.26
2018-07-31T22:23:40.221Z,24.22
2018-07-31T22:26:08.559Z,24.21
2018-07-31T22:28:36.928Z,24.18
2018-07-31T22:31:05.310Z,24.15
2018-07-31T22:33:33.668Z,24.13
2018-07-31T22:36:01.990Z,24.12
2018-07-31T22:38:30.318Z,24.09
2018-07-31T22:40:58.642Z,24.06
2018-07-31T22:43:27.054Z,24.04
2018-07-31T22:45:55.320Z,24.01
2018-07-31T22:48:23.678Z,23.98
2018-07-31T22:50:52.083Z,23.91
2018-07-31T22:53:20.449Z,23.83
2018-07-31T22:55:48.780Z,23.76
2018-07-31T22:58:17.119Z,23.69
2018-07-31T23:00:45.461Z,23.63
2018-07-31T23:03:13.789Z,23.55
2018-07-31T23:05:42.113Z,23.54
2018-07-31T23:08:10.450Z,23.51
2018-07-31T23:10:38.831Z,23.48
2018-07-31T23:13:07.177Z,23.44
2018-07-31T23:15:35.590Z,23.39
2018-07-31T23:18:03.950Z,23.37
2018-07-31T23:20:32.309Z,23.33
2018-07-31T23:23:00.605Z,23.30
2018-07-31T23:25:28.947Z,23.27
2018-07-31T23:27:57.266Z,23.22
2018-07-31T23:30:25.565Z,23.16
2018-07-31T23:32:53.920Z,23.16
2018-07-31T23:35:22.248Z,23.13
2018-07-31T23:37:50.715Z,23.10
2018-07-31T23:40:19.026Z,23.10
2018-07-31T23:42:47.338Z,23.07
2018-07-31T23:45:15.691Z,23.05
2018-07-31T23:47:44.027Z,23.05
2018-07-31T23:50:12.394Z,23.07
2018-07-31T23:52:40.780Z,23.07
2018-07-31T23:55:09.233Z,23.07
2018-07-31T23:57:37.559Z,23.09
